Time;durP1;ratioP1;P1;durP2;ratioP2;P2;SDS_P1;SDS_P2;PMS_P1;PMS_P2;Temp;Humidity;BMP_temperature;BMP_pressure;BME280_temperature;BME280_humidity;BME280_pressure;Samples;Min_cycle;Max_cycle;Signal;HPM_P1;HPM_P2
2023/01/16 00:01:49;;;;;;;4.97;4.13;;;1.10;99.90;;;;;;5068133;28;20198;-48
2023/01/16 00:04:16;;;;;;;5.87;4.20;;;1.20;99.90;;;;;;5064691;28;20206;-48
2023/01/16 00:06:45;;;;;;;7.33;4.63;;;1.10;99.90;;;;;;5064798;28;20639;-48
2023/01/16 00:09:12;;;;;;;4.23;3.20;;;1.10;99.90;;;;;;5067982;28;20279;-50
2023/01/16 00:11:39;;;;;;;3.10;2.80;;;1.10;99.90;;;;;;5065973;28;20210;-49
2023/01/16 00:14:06;;;;;;;3.93;3.30;;;1.00;99.90;;;;;;5064919;28;20608;-48
2023/01/16 00:16:33;;;;;;;3.10;2.83;;;1.00;99.90;;;;;;5051807;28;20245;-49
2023/01/16 00:19:00;;;;;;;3.97;3.50;;;1.10;99.90;;;;;;5066869;28;20222;-48
2023/01/16 00:21:27;;;;;;;3.43;2.63;;;1.10;99.90;;;;;;5068278;28;20198;-47
2023/01/16 00:23:56;;;;;;;3.13;2.83;;;1.10;99.90;;;;;;5071506;28;20251;-49
2023/01/16 00:26:24;;;;;;;2.63;2.43;;;1.20;99.90;;;;;;5071459;28;20806;-48
2023/01/16 00:28:51;;;;;;;2.80;2.60;;;1.20;99.90;;;;;;5071367;28;20873;-49
2023/01/16 00:31:18;;;;;;;3.83;2.17;;;1.20;99.90;;;;;;5069906;28;20202;-48
2023/01/16 00:33:45;;;;;;;2.73;2.47;;;1.20;99.90;;;;;;5069014;28;20609;-49
2023/01/16 00:36:13;;;;;;;2.47;2.27;;;1.20;99.90;;;;;;5072360;28;20645;-52
2023/01/16 00:38:40;;;;;;;3.67;2.87;;;1.20;99.90;;;;;;5071057;28;20368;-49
2023/01/16 00:41:08;;;;;;;3.30;3.00;;;1.20;99.90;;;;;;5071021;28;20250;-49
2023/01/16 00:43:36;;;;;;;2.97;2.53;;;1.20;99.90;;;;;;5071879;28;20199;-49
2023/01/16 00:46:03;;;;;;;3.30;3.00;;;1.10;99.90;;;;;;5072521;28;20261;-48
2023/01/16 00:48:30;;;;;;;2.55;2.45;;;1.10;99.90;;;;;;5028907;28;1219544;-49
2023/01/16 00:50:57;;;;;;;2.27;2.10;;;1.00;99.90;;;;;;5066295;28;20204;-49
2023/01/16 00:53:24;;;;;;;2.83;2.63;;;1.00;99.90;;;;;;5072216;28;20240;-49
2023/01/16 00:55:52;;;;;;;3.10;2.90;;;1.00;99.90;;;;;;5073371;28;20202;-49
2023/01/16 00:58:20;;;;;;;3.53;3.23;;;1.00;99.90;;;;;;5069789;28;20210;-48
2023/01/16 01:00:48;;;;;;;2.83;2.63;;;1.00;99.90;;;;;;5070142;28;20206;-49
2023/01/16 01:03:15;;;;;;;3.50;2.67;;;1.00;99.90;;;;;;5072820;28;20206;-48
2023/01/16 01:05:42;;;;;;;4.43;2.63;;;1.00;99.90;;;;;;5072862;28;20213;-49
2023/01/16 01:08:09;;;;;;;3.57;3.30;;;1.10;99.90;;;;;;5072593;28;20214;-52
2023/01/16 01:10:38;;;;;;;3.27;3.07;;;1.00;99.90;;;;;;5070866;28;20199;-48
2023/01/16 01:13:05;;;;;;;3.40;3.20;;;1.00;99.90;;;;;;5072443;28;20204;-49
2023/01/16 01:15:34;;;;;;;4.13;3.20;;;1.10;99.90;;;;;;5052945;28;20246;-49
2023/01/16 01:18:02;;;;;;;3.83;3.53;;;1.00;99.90;;;;;;5053034;28;20205;-48
2023/01/16 01:20:29;;;;;;;3.87;3.57;;;1.00;99.90;;;;;;5065207;28;20204;-49
2023/01/16 01:22:56;;;;;;;3.93;3.63;;;1.00;99.90;;;;;;5071651;28;20205;-49
2023/01/16 01:25:23;;;;;;;4.37;3.50;;;1.00;99.90;;;;;;5072447;28;20209;-48
2023/01/16 01:27:50;;;;;;;3.07;2.90;;;1.00;99.90;;;;;;5072411;28;20247;-49
2023/01/16 01:30:17;;;;;;;3.50;3.20;;;1.00;99.90;;;;;;5072062;28;20787;-49
2023/01/16 01:32:45;;;;;;;4.03;2.87;;;1.00;99.90;;;;;;5068525;28;20236;-49
2023/01/16 01:35:12;;;;;;;3.20;2.60;;;0.90;99.90;;;;;;5071802;28;20207;-49
2023/01/16 01:37:39;;;;;;;1.60;1.60;;;1.00;99.90;;;;;;5072297;28;20275;-49
2023/01/16 01:40:08;;;;;;;2.07;1.97;;;1.00;99.90;;;;;;5072257;28;20224;-49
2023/01/16 01:42:51;;;;;;;3.90;1.90;;;1.00;99.90;;;;;;5070666;28;20207;-49
2023/01/16 01:45:20;;;;;;;1.20;1.20;;;1.00;99.90;;;;;;5072243;28;20207;-49
2023/01/16 01:47:55;;;;;;;2.30;1.83;;;1.00;99.90;;;;;;5072058;28;20202;-50
2023/01/16 01:50:36;;;;;;;3.57;1.80;;;0.90;99.90;;;;;;5072409;28;20284;-49
2023/01/16 01:53:09;;;;;;;1.20;1.10;;;0.80;99.90;;;;;;5062691;28;20249;-50
2023/01/16 01:55:38;;;;;;;1.73;1.63;;;0.90;99.90;;;;;;5070696;28;20211;-49
2023/01/16 01:58:05;;;;;;;1.73;1.50;;;0.80;99.90;;;;;;5071939;28;20255;-49
2023/01/16 02:00:33;;;;;;;1.60;1.40;;;0.90;99.90;;;;;;5071976;28;20699;-50
2023/01/16 02:03:08;;;;;;;2.00;1.90;;;0.90;99.90;;;;;;5076205;28;20203;-50
2023/01/16 02:05:38;;;;;;;1.97;1.87;;;0.90;99.90;;;;;;5071915;28;20284;-49
2023/01/16 02:08:07;;;;;;;2.13;2.03;;;0.80;99.90;;;;;;5070842;28;20206;-50
2023/01/16 02:10:38;;;;;;;2.17;1.97;;;0.80;99.90;;;;;;5072041;28;20690;-49
2023/01/16 02:13:05;;;;;;;4.07;2.63;;;0.70;99.90;;;;;;5062371;28;20287;-49
2023/01/16 02:15:32;;;;;;;2.27;2.07;;;0.80;99.90;;;;;;5071669;28;20201;-49
2023/01/16 02:21:08;;;;;;;1.33;1.20;;;0.70;99.90;;;;;;5071020;28;20213;-50
2023/01/16 02:24:12;;;;;;;2.07;1.70;;;0.70;99.90;;;;;;5068476;28;20198;-50
2023/01/16 02:27:09;;;;;;;1.27;1.07;;;0.70;99.90;;;;;;5070946;28;20208;-50
2023/01/16 02:30:03;;;;;;;1.17;1.17;;;0.70;99.90;;;;;;5066825;28;20224;-49
2023/01/16 02:32:49;;;;;;;1.47;1.20;;;0.80;99.90;;;;;;5068650;28;20668;-49
2023/01/16 02:35:35;;;;;;;1.10;0.83;;;0.70;99.90;;;;;;5065658;28;20210;-50
2023/01/16 02:38:10;;;;;;;1.23;1.23;;;0.80;99.90;;;;;;5071160;28;20651;-50
2023/01/16 02:40:45;;;;;;;1.57;1.20;;;0.80;99.90;;;;;;5072756;28;20209;-49
2023/01/16 02:43:21;;;;;;;1.50;1.30;;;0.70;99.90;;;;;;5071060;28;20663;-49
2023/01/16 02:45:57;;;;;;;1.57;1.50;;;0.60;99.90;;;;;;5069952;28;20258;-48
2023/01/16 02:48:33;;;;;;;1.77;1.67;;;0.60;99.90;;;;;;5070675;28;20225;-49
2023/01/16 02:51:07;;;;;;;3.37;2.23;;;0.60;99.90;;;;;;5072234;28;20207;-49
2023/01/16 02:53:42;;;;;;;1.70;1.57;;;0.60;99.90;;;;;;5070839;28;20198;-48
2023/01/16 02:56:13;;;;;;;1.87;1.53;;;0.60;99.90;;;;;;5070018;28;20209;-49
2023/01/16 02:58:44;;;;;;;1.63;1.47;;;0.60;99.90;;;;;;5069335;28;20695;-49
2023/01/16 03:01:11;;;;;;;1.50;1.40;;;0.50;99.90;;;;;;5066832;28;20199;-50
2023/01/16 03:03:42;;;;;;;2.03;1.77;;;0.50;99.90;;;;;;5070668;28;20198;-49
2023/01/16 03:06:35;;;;;;;1.50;1.40;;;0.50;99.90;;;;;;5070889;28;20212;-51
2023/01/16 03:09:26;;;;;;;2.60;1.30;;;0.40;99.90;;;;;;5068242;28;20218;-50
2023/01/16 03:12:10;;;;;;;2.93;1.23;;;0.40;99.90;;;;;;5058738;28;21015;-50
2023/01/16 03:14:44;;;;;;;1.00;1.00;;;0.40;99.90;;;;;;5070674;28;20205;-48
2023/01/16 03:17:29;;;;;;;1.30;1.30;;;0.40;99.90;;;;;;5070661;28;20247;-48
2023/01/16 03:20:14;;;;;;;2.03;1.07;;;0.40;99.90;;;;;;5069123;28;20368;-48
2023/01/16 03:22:48;;;;;;;0.90;0.90;;;0.40;99.90;;;;;;5072817;28;20552;-48
2023/01/16 03:25:25;;;;;;;1.20;0.60;;;0.40;99.90;;;;;;5067682;28;21035;-48
2023/01/16 03:28:00;;;;;;;2.00;0.70;;;0.40;99.90;;;;;;5070421;28;20211;-49
2023/01/16 03:30:32;;;;;;;0.80;0.80;;;0.40;99.90;;;;;;5070551;28;20302;-48
2023/01/16 03:33:05;;;;;;;1.03;0.93;;;0.30;99.90;;;;;;5065371;28;20206;-49
2023/01/16 03:35:37;;;;;;;1.20;0.50;;;0.40;99.90;;;;;;5070415;28;20199;-49
2023/01/16 03:38:08;;;;;;;0.77;0.67;;;0.40;99.90;;;;;;5070550;28;20212;-50
2023/01/16 03:40:40;;;;;;;0.63;0.63;;;0.40;99.90;;;;;;5070217;28;20259;-49
2023/01/16 03:43:11;;;;;;;1.53;0.60;;;0.40;99.90;;;;;;5070215;28;20271;-49
2023/01/16 03:45:42;;;;;;;0.80;0.50;;;0.50;99.90;;;;;;5069487;28;20342;-49
2023/01/16 03:48:14;;;;;;;0.90;0.60;;;0.40;99.90;;;;;;5070135;28;20305;-50
2023/01/16 03:50:47;;;;;;;2.93;0.90;;;0.40;99.90;;;;;;5073549;28;20280;-49
2023/01/16 03:53:19;;;;;;;0.87;0.50;;;0.30;99.90;;;;;;5069912;28;20255;-48
2023/01/16 03:55:54;;;;;;;0.63;0.40;;;0.30;99.90;;;;;;5070296;28;20479;-47
2023/01/16 03:58:28;;;;;;;3.03;0.80;;;0.30;99.90;;;;;;5073629;28;20224;-50
2023/01/16 04:01:01;;;;;;;0.50;0.50;;;0.20;99.90;;;;;;5077414;28;20207;-49
2023/01/16 04:03:35;;;;;;;0.90;0.90;;;0.20;99.90;;;;;;5073820;28;20705;-49
2023/01/16 04:06:10;;;;;;;0.97;0.70;;;0.30;99.90;;;;;;5074112;28;20291;-49
2023/01/16 04:08:41;;;;;;;1.67;0.97;;;0.30;99.90;;;;;;5073104;28;20225;-48
2023/01/16 04:11:09;;;;;;;1.20;1.20;;;0.30;99.90;;;;;;5069626;28;20664;-50
2023/01/16 04:13:39;;;;;;;0.47;0.47;;;0.30;99.90;;;;;;5073308;28;20632;-48
2023/01/16 04:16:13;;;;;;;0.50;0.50;;;0.40;99.90;;;;;;5073856;28;20258;-49
2023/01/16 04:18:42;;;;;;;0.70;0.60;;;0.30;99.90;;;;;;5073700;28;20255;-49
2023/01/16 04:21:10;;;;;;;0.40;0.40;;;0.40;99.90;;;;;;5075397;28;20203;-49
2023/01/16 04:23:37;;;;;;;0.80;0.60;;;0.40;99.90;;;;;;5073029;28;20282;-48
2023/01/16 04:26:05;;;;;;;0.60;0.60;;;0.40;99.90;;;;;;5074327;28;20209;-50
2023/01/16 04:28:32;;;;;;;0.60;0.60;;;0.40;99.90;;;;;;5073776;28;20227;-49
2023/01/16 04:30:59;;;;;;;2.00;0.40;;;0.40;99.90;;;;;;5072334;28;20222;-48
2023/01/16 04:33:26;;;;;;;0.40;0.40;;;0.40;99.90;;;;;;5073410;28;20223;-49
2023/01/16 04:35:53;;;;;;;1.43;1.03;;;0.50;99.90;;;;;;5071126;28;20194;-49
2023/01/16 04:38:21;;;;;;;0.40;0.40;;;0.50;99.90;;;;;;5073708;28;20215;-49
2023/01/16 04:40:48;;;;;;;0.40;0.40;;;0.40;99.90;;;;;;5064277;28;20210;-49
2023/01/16 04:43:15;;;;;;;2.63;1.63;;;0.40;99.90;;;;;;5073226;28;20204;-49
2023/01/16 04:45:42;;;;;;;2.63;0.50;;;0.30;99.90;;;;;;5073395;28;20200;-50
2023/01/16 04:48:09;;;;;;;0.50;0.50;;;0.20;99.90;;;;;;5072591;28;20203;-49
2023/01/16 04:50:36;;;;;;;0.53;0.40;;;0.20;99.90;;;;;;5072489;28;20226;-49
2023/01/16 04:53:03;;;;;;;0.60;0.60;;;0.20;99.90;;;;;;5073168;28;20701;-49
2023/01/16 04:55:31;;;;;;;0.70;0.70;;;0.20;99.90;;;;;;5073244;28;20683;-49
2023/01/16 04:57:58;;;;;;;0.50;0.50;;;0.20;99.90;;;;;;5071185;28;20235;-48
2023/01/16 05:00:25;;;;;;;0.93;0.80;;;0.10;99.90;;;;;;5075347;28;20206;-48
2023/01/16 05:02:53;;;;;;;2.20;0.63;;;0.10;99.90;;;;;;5072878;28;20203;-49
2023/01/16 05:05:21;;;;;;;0.53;0.40;;;0.00;99.90;;;;;;5073324;28;20211;-49
2023/01/16 05:08:15;;;;;;;0.50;0.50;;;0.00;99.90;;;;;;5072023;28;20263;-49
2023/01/16 05:10:37;;;;;;;1.90;0.40;;;0.00;99.90;;;;;;5070989;28;20317;-49
2023/01/16 05:13:05;;;;;;;0.70;0.60;;;0.10;99.90;;;;;;5072176;28;20325;-48
2023/01/16 05:15:31;;;;;;;1.73;1.53;;;0.20;99.90;;;;;;5071584;28;20250;-48
2023/01/16 05:17:58;;;;;;;1.60;0.80;;;0.20;99.90;;;;;;5071934;28;20240;-48
2023/01/16 05:20:25;;;;;;;0.70;0.70;;;0.20;99.90;;;;;;5072526;28;20657;-49
2023/01/16 05:22:52;;;;;;;1.50;1.03;;;0.20;99.90;;;;;;5072147;28;20203;-49
2023/01/16 05:25:19;;;;;;;0.73;0.73;;;0.10;99.90;;;;;;5072955;28;20256;-49
2023/01/16 05:27:51;;;;;;;1.80;1.00;;;0.00;99.90;;;;;;5073146;28;20345;-49
2023/01/16 05:30:18;;;;;;;2.30;1.30;;;0.10;99.90;;;;;;5070266;28;20230;-49
2023/01/16 05:32:46;;;;;;;1.13;1.03;;;0.00;99.90;;;;;;5072068;28;20207;-49
2023/01/16 05:35:15;;;;;;;1.23;1.10;;;-0.10;99.90;;;;;;5073641;28;20349;-49
2023/01/16 05:37:42;;;;;;;1.57;1.23;;;0.00;99.90;;;;;;5071651;28;20205;-49
2023/01/16 05:40:11;;;;;;;1.13;0.83;;;0.00;99.90;;;;;;5072213;28;20211;-50
2023/01/16 05:42:38;;;;;;;2.23;0.93;;;-0.10;99.90;;;;;;5072316;28;20205;-49
2023/01/16 05:45:08;;;;;;;2.13;1.93;;;0.00;99.90;;;;;;5070148;28;20261;-50
2023/01/16 05:47:35;;;;;;;1.93;1.23;;;0.00;99.90;;;;;;5072374;28;20198;-48
2023/01/16 05:50:02;;;;;;;1.43;1.33;;;0.00;99.90;;;;;;5078119;28;20222;-49
2023/01/16 05:52:29;;;;;;;1.13;1.10;;;0.00;99.90;;;;;;5072208;28;20243;-48
2023/01/16 05:54:56;;;;;;;0.77;0.77;;;0.00;99.90;;;;;;5072089;28;21192;-50
2023/01/16 05:57:23;;;;;;;1.63;1.53;;;0.00;99.90;;;;;;5071716;28;20661;-49
2023/01/16 05:59:51;;;;;;;1.90;1.67;;;0.10;99.90;;;;;;5070737;28;20227;-49
2023/01/16 06:02:20;;;;;;;2.87;1.47;;;0.00;99.90;;;;;;5071881;28;20732;-49
2023/01/16 06:04:48;;;;;;;1.57;1.47;;;-0.10;99.90;;;;;;5070412;28;20675;-48
2023/01/16 06:07:18;;;;;;;1.60;1.50;;;-0.20;99.90;;;;;;5071511;28;20198;-48
2023/01/16 06:09:45;;;;;;;3.17;2.53;;;-0.30;99.90;;;;;;5070981;28;20277;-48
2023/01/16 06:12:17;;;;;;;2.80;2.23;;;-0.40;99.90;;;;;;5064950;28;20210;-48
2023/01/16 06:14:44;;;;;;;2.20;2.10;;;-0.50;99.90;;;;;;5070878;28;20278;-49
2023/01/16 06:17:15;;;;;;;2.53;1.83;;;-0.50;99.90;;;;;;5070940;28;20691;-50
2023/01/16 06:19:44;;;;;;;4.77;2.20;;;-0.60;99.90;;;;;;5071213;28;20269;-49
2023/01/16 06:22:15;;;;;;;3.00;2.70;;;-0.50;99.90;;;;;;5071450;28;20294;-49
2023/01/16 06:24:42;;;;;;;1.80;1.70;;;-0.50;99.90;;;;;;5071182;28;20693;-50
2023/01/16 06:27:09;;;;;;;1.23;0.70;;;-0.50;99.90;;;;;;5071357;28;20289;-49
2023/01/16 06:29:38;;;;;;;1.83;0.47;;;-0.50;99.90;;;;;;5070994;28;20686;-48
2023/01/16 06:32:05;;;;;;;0.47;0.30;;;-0.40;99.90;;;;;;5072033;28;20197;-48
2023/01/16 06:34:32;;;;;;;0.50;0.20;;;-0.20;99.90;;;;;;5074100;28;20237;-48
2023/01/16 06:37:01;;;;;;;1.73;1.40;;;-0.10;99.90;;;;;;5073919;28;20693;-48
2023/01/16 06:39:28;;;;;;;2.87;1.70;;;0.00;99.90;;;;;;5074442;28;20280;-48
2023/01/16 06:41:55;;;;;;;2.17;1.20;;;0.10;99.90;;;;;;5070908;28;20221;-49
2023/01/16 06:44:22;;;;;;;1.27;0.50;;;0.20;99.90;;;;;;5069896;28;20688;-49
2023/01/16 06:46:49;;;;;;;0.30;0.20;;;0.20;99.90;;;;;;5070728;28;20697;-49
2023/01/16 06:49:16;;;;;;;1.93;0.30;;;0.20;99.90;;;;;;5070866;28;20316;-49
2023/01/16 06:51:43;;;;;;;2.63;0.40;;;0.20;99.90;;;;;;5070225;28;20255;-51
2023/01/16 06:54:12;;;;;;;1.70;0.90;;;0.20;99.90;;;;;;5069538;28;20686;-50
2023/01/16 06:56:39;;;;;;;3.07;2.80;;;0.10;99.90;;;;;;5070879;28;20529;-51
2023/01/16 06:59:06;;;;;;;6.40;2.83;;;0.00;99.90;;;;;;5069623;28;20218;-50
2023/01/16 07:01:34;;;;;;;2.33;2.13;;;0.00;99.90;;;;;;5068509;28;20207;-50
2023/01/16 07:04:01;;;;;;;1.47;1.10;;;-0.10;99.90;;;;;;5070243;28;20652;-49
2023/01/16 07:06:28;;;;;;;0.70;0.40;;;-0.10;99.90;;;;;;5077301;28;20614;-52
2023/01/16 07:08:55;;;;;;;0.40;0.40;;;0.00;99.90;;;;;;5065526;28;20227;-49
2023/01/16 07:11:23;;;;;;;0.27;0.27;;;0.10;99.90;;;;;;5070270;28;20223;-50
2023/01/16 07:22:33;;;;;;;0.67;0.20;;;0.30;99.90;;;;;;5070679;28;20576;-50
2023/01/16 07:22:38;;;;;;;0.77;0.53;;;0.40;99.90;;;;;;5008642;28;20239;-51
2023/01/16 07:25:09;;;;;;;0.20;0.10;;;0.40;99.90;;;;;;5051203;28;20270;-51
2023/01/16 07:27:37;;;;;;;0.93;0.10;;;0.40;99.90;;;;;;5087698;28;20260;-49
2023/01/16 07:30:06;;;;;;;0.40;0.30;;;0.50;99.90;;;;;;5073384;28;20505;-51
2023/01/16 07:32:33;;;;;;;0.57;0.50;;;0.50;99.90;;;;;;5076395;28;20224;-50
2023/01/16 07:35:00;;;;;;;0.83;0.40;;;0.60;99.90;;;;;;5071062;28;20198;-50
2023/01/16 07:37:27;;;;;;;0.83;0.30;;;0.70;99.90;;;;;;5070365;28;20214;-51
2023/01/16 07:39:54;;;;;;;1.67;0.50;;;0.70;99.90;;;;;;5061085;28;20219;-50
2023/01/16 07:42:21;;;;;;;0.87;0.60;;;0.70;99.90;;;;;;5070715;28;20671;-51
2023/01/16 07:44:49;;;;;;;1.20;1.20;;;0.70;99.90;;;;;;5070266;28;20248;-50
2023/01/16 07:47:16;;;;;;;1.37;1.27;;;0.80;99.90;;;;;;5070691;28;20208;-50
2023/01/16 07:49:43;;;;;;;0.70;0.70;;;0.80;99.90;;;;;;5071546;28;20230;-51
2023/01/16 07:52:11;;;;;;;2.30;0.90;;;1.00;99.90;;;;;;5070422;28;20325;-50
2023/01/16 07:54:41;;;;;;;1.60;1.30;;;1.10;99.90;;;;;;5070084;28;20218;-51
2023/01/16 07:57:10;;;;;;;2.60;0.60;;;1.30;99.90;;;;;;5070237;28;20198;-50
2023/01/16 07:59:37;;;;;;;1.67;0.63;;;1.40;99.90;;;;;;5060716;28;20276;-50
2023/01/16 08:02:06;;;;;;;2.47;1.07;;;1.40;99.90;;;;;;5070441;28;20697;-50
2023/01/16 08:04:33;;;;;;;1.30;1.17;;;1.40;99.90;;;;;;5070173;28;20202;-51
2023/01/16 08:07:00;;;;;;;2.33;0.63;;;1.40;99.90;;;;;;5069922;28;20284;-51
2023/01/16 08:09:27;;;;;;;1.07;0.87;;;1.30;99.90;;;;;;5068958;28;20545;-52
2023/01/16 08:11:54;;;;;;;1.30;0.40;;;1.20;99.90;;;;;;5067978;28;20232;-49
2023/01/16 08:14:21;;;;;;;2.33;0.40;;;1.10;99.90;;;;;;5065139;28;20199;-51
2023/01/16 08:16:48;;;;;;;0.97;0.30;;;1.10;99.90;;;;;;5068293;28;20205;-50
2023/01/16 08:19:17;;;;;;;1.00;0.90;;;1.10;99.90;;;;;;5073853;28;20713;-51
2023/01/16 08:21:44;;;;;;;2.20;1.63;;;1.20;99.90;;;;;;5071654;28;20202;-51
2023/01/16 08:24:14;;;;;;;1.93;1.07;;;1.30;99.90;;;;;;5066113;28;20216;-51
2023/01/16 08:26:42;;;;;;;0.40;0.40;;;1.50;99.90;;;;;;5074187;28;20207;-51
2023/01/16 08:29:10;;;;;;;1.03;0.60;;;1.50;99.90;;;;;;5066380;28;20218;-51
2023/01/16 08:31:37;;;;;;;1.03;0.60;;;1.60;99.90;;;;;;5067756;28;20251;-50
2023/01/16 08:34:04;;;;;;;1.13;0.70;;;1.70;99.90;;;;;;5068858;28;20206;-51
2023/01/16 08:36:33;;;;;;;1.70;0.23;;;1.80;99.90;;;;;;5067376;28;20263;-54
2023/01/16 08:39:00;;;;;;;1.23;0.20;;;2.00;99.90;;;;;;5068467;28;20229;-52
2023/01/16 08:52:31;;;;;;;2.13;0.70;;;3.70;99.90;;;;;;5073333;28;20255;-51
2023/01/16 08:54:58;;;;;;;0.63;0.47;;;4.30;99.90;;;;;;5073251;28;20202;-52
2023/01/16 08:57:27;;;;;;;0.40;0.40;;;4.30;99.90;;;;;;5065845;28;20225;-50
2023/01/16 08:59:54;;;;;;;0.40;0.40;;;3.80;99.90;;;;;;5073867;28;20226;-52
2023/01/16 09:02:22;;;;;;;1.13;0.30;;;3.70;99.90;;;;;;5072492;28;20271;-50
2023/01/16 09:04:49;;;;;;;2.77;0.50;;;3.90;99.90;;;;;;5090765;28;20201;-51
2023/01/16 09:07:17;;;;;;;0.90;0.90;;;4.20;99.90;;;;;;5075605;28;20235;-54
2023/01/16 09:09:45;;;;;;;0.90;0.70;;;4.70;99.90;;;;;;5080090;28;20233;-51
2023/01/16 09:14:59;;;;;;;1.17;1.07;;;5.20;99.90;;;;;;5052789;28;20209;-51
2023/01/16 09:17:28;;;;;;;1.30;1.23;;;5.30;99.90;;;;;;5052825;28;20214;-52
2023/01/16 09:19:55;;;;;;;2.67;1.30;;;5.20;99.90;;;;;;5070744;28;20233;-52
2023/01/16 09:22:22;;;;;;;3.03;1.53;;;5.30;99.90;;;;;;5072512;28;20195;-51
2023/01/16 09:24:50;;;;;;;0.97;0.97;;;5.20;99.90;;;;;;5072850;28;20408;-52
2023/01/16 09:27:18;;;;;;;3.23;1.07;;;5.10;99.90;;;;;;5072575;28;20577;-51
2023/01/16 09:29:45;;;;;;;0.73;0.73;;;5.00;99.90;;;;;;5062390;28;20224;-52
2023/01/16 09:32:16;;;;;;;1.83;1.20;;;4.80;99.90;;;;;;5072335;28;20217;-51
2023/01/16 09:34:43;;;;;;;2.53;1.60;;;4.80;99.90;;;;;;5072359;28;20206;-52
2023/01/16 09:37:13;;;;;;;4.40;3.07;;;4.80;99.90;;;;;;5072567;28;20215;-51
2023/01/16 09:39:41;;;;;;;9.00;3.67;;;4.80;99.90;;;;;;5074597;28;20218;-51
2023/01/16 09:45:33;;;;;;;3.17;2.50;;;4.90;99.90;;;;;;5066398;28;20249;-53
2023/01/16 09:48:04;;;;;;;5.37;3.23;;;5.10;99.90;;;;;;5072334;28;20215;-51
2023/01/16 09:50:35;;;;;;;0.70;0.60;;;5.30;99.90;;;;;;5072270;28;20687;-52
2023/01/16 09:58:40;;;;;;;1.80;1.07;;;5.60;99.90;;;;;;5072144;28;20234;-51
2023/01/16 10:01:12;;;;;;;5.40;2.27;;;5.60;99.90;;;;;;5072060;28;20211;-50
2023/01/16 10:03:42;;;;;;;3.27;1.83;;;5.60;99.90;;;;;;5075456;28;20210;-52
2023/01/16 10:06:17;;;;;;;5.97;1.57;;;5.70;99.90;;;;;;5071800;28;20230;-50
2023/01/16 10:08:57;;;;;;;3.90;1.43;;;5.70;99.90;;;;;;5071907;28;20254;-50
2023/01/16 10:11:29;;;;;;;2.07;0.93;;;5.50;99.90;;;;;;5071557;28;20221;-50
2023/01/16 10:14:31;;;;;;;5.73;2.97;;;5.30;99.90;;;;;;5069813;28;20196;-50
2023/01/16 10:17:13;;;;;;;4.97;1.73;;;5.10;99.90;;;;;;5060805;28;20203;-51
2023/01/16 10:19:56;;;;;;;1.33;0.97;;;4.80;99.90;;;;;;5071595;28;20234;-50
2023/01/16 10:22:35;;;;;;;0.97;0.97;;;4.70;99.90;;;;;;5071153;28;20199;-50
2023/01/16 10:25:15;;;;;;;0.80;0.80;;;4.70;99.90;;;;;;5064079;28;20228;-50
2023/01/16 10:27:48;;;;;;;0.73;0.67;;;4.80;99.90;;;;;;5071470;28;20206;-50
2023/01/16 10:30:20;;;;;;;1.63;0.80;;;4.90;99.90;;;;;;5073027;28;20242;-50
2023/01/16 10:32:51;;;;;;;2.90;1.17;;;4.80;99.90;;;;;;5070970;28;20306;-51
2023/01/16 10:35:24;;;;;;;1.30;1.20;;;4.70;99.90;;;;;;5071105;28;20212;-48
2023/01/16 10:37:52;;;;;;;4.77;2.03;;;4.80;99.90;;;;;;5071429;28;20531;-51
2023/01/16 10:40:25;;;;;;;4.53;1.20;;;4.80;99.90;;;;;;5063964;28;20218;-51
2023/01/16 10:51:27;;;;;;;1.30;0.97;;;4.70;99.90;;;;;;5070972;28;20225;-50
2023/01/16 10:53:55;;;;;;;0.60;0.60;;;4.60;99.90;;;;;;5076118;28;20198;-50
2023/01/16 10:56:22;;;;;;;0.53;0.50;;;4.70;99.90;;;;;;5070777;28;20267;-50
2023/01/16 10:58:49;;;;;;;0.73;0.57;;;4.70;99.90;;;;;;5070913;28;20307;-51
2023/01/16 11:01:20;;;;;;;4.07;1.30;;;4.60;99.90;;;;;;5070717;28;20206;-48
2023/01/16 11:03:48;;;;;;;4.27;1.33;;;4.50;99.90;;;;;;5076060;28;20199;-51
2023/01/16 11:06:19;;;;;;;2.43;1.70;;;4.50;99.90;;;;;;5070414;28;20204;-50
2023/01/16 11:08:49;;;;;;;3.60;1.73;;;4.50;99.90;;;;;;5068215;28;20226;-50
2023/01/16 11:19:43;;;;;;;4.00;2.20;;;4.40;99.90;;;;;;5070519;28;20367;-49
2023/01/16 11:22:24;;;;;;;4.37;2.50;;;4.30;99.90;;;;;;5070807;28;20198;-49
2023/01/16 11:24:57;;;;;;;0.83;0.80;;;4.30;99.90;;;;;;5062501;28;20207;-52
2023/01/16 11:27:32;;;;;;;3.07;0.90;;;4.20;99.90;;;;;;5070522;28;20203;-50
2023/01/16 11:30:03;;;;;;;1.70;1.57;;;4.10;99.90;;;;;;5070686;28;20225;-51
2023/01/16 11:32:37;;;;;;;3.20;1.90;;;4.00;99.90;;;;;;5070551;28;20260;-50
2023/01/16 11:35:13;;;;;;;1.15;0.50;;;4.00;99.90;;;;;;5074560;28;20454;-50
2023/01/16 11:37:43;;;;;;;2.10;0.90;;;3.90;99.90;;;;;;5070343;28;20212;-50
2023/01/16 11:40:17;;;;;;;0.83;0.83;;;3.90;99.90;;;;;;5070598;28;20226;-50
2023/01/16 11:46:03;;;;;;;1.33;0.80;;;3.80;99.90;;;;;;5071063;28;20202;-52
2023/01/16 11:48:37;;;;;;;1.27;1.10;;;3.70;99.90;;;;;;5070516;28;20266;-50
2023/01/16 11:51:06;;;;;;;1.03;0.93;;;3.60;99.90;;;;;;5070700;28;20218;-50
2023/01/16 11:53:35;;;;;;;1.43;0.60;;;3.60;99.90;;;;;;5071692;28;20198;-50
2023/01/16 11:56:32;;;;;;;1.03;0.53;;;3.70;99.90;;;;;;5070332;28;20214;-51
2023/01/16 11:59:11;;;;;;;0.50;0.50;;;3.60;99.90;;;;;;5070181;28;20807;-49
2023/01/16 12:05:53;;;;;;;0.83;0.60;;;3.50;99.90;;;;;;5069790;28;20621;-50
2023/01/16 12:07:41;;;;;;;0.60;0.60;;;3.50;99.90;;;;;;5069901;28;20207;-50
2023/01/16 12:10:21;;;;;;;1.60;0.73;;;3.50;99.90;;;;;;5069807;28;20287;-50
2023/01/16 12:15:51;;;;;;;1.27;1.00;;;3.50;99.90;;;;;;5070218;28;20234;-50
2023/01/16 12:18:29;;;;;;;1.00;0.67;;;3.50;99.90;;;;;;5072367;28;20207;-52
2023/01/16 12:21:02;;;;;;;2.03;0.60;;;3.60;99.90;;;;;;5072652;28;20207;-51
2023/01/16 12:23:51;;;;;;;0.73;0.73;;;3.60;99.90;;;;;;5069380;28;20210;-51
2023/01/16 12:26:23;;;;;;;2.50;1.90;;;3.60;99.90;;;;;;5058541;28;20238;-52
2023/01/16 12:29:08;;;;;;;3.50;1.73;;;3.60;99.90;;;;;;5073753;28;20225;-52
2023/01/16 12:31:51;;;;;;;1.10;0.90;;;3.60;99.90;;;;;;5073377;28;20234;-51
2023/01/16 12:34:42;;;;;;;2.93;1.10;;;3.60;99.90;;;;;;5073600;28;20206;-51
2023/01/16 12:37:22;;;;;;;0.80;0.73;;;3.60;99.90;;;;;;5061717;28;20213;-51
2023/01/16 12:39:56;;;;;;;1.37;0.70;;;3.60;99.90;;;;;;5073526;28;20690;-52
2023/01/16 12:45:32;;;;;;;3.43;0.80;;;3.60;99.90;;;;;;5068289;28;20201;-51
2023/01/16 12:48:16;;;;;;;0.60;0.60;;;3.70;99.90;;;;;;5073766;28;20662;-52
2023/01/16 12:50:59;;;;;;;0.53;0.50;;;3.70;99.90;;;;;;5053724;28;20253;-51
2023/01/16 12:53:59;;;;;;;0.70;0.70;;;3.80;99.90;;;;;;5069554;28;20208;-50
2023/01/16 12:56:38;;;;;;;0.50;0.50;;;3.80;99.90;;;;;;5070635;28;20237;-51
2023/01/16 12:59:14;;;;;;;0.80;0.50;;;4.00;99.90;;;;;;5073025;28;20241;-51
2023/01/16 13:01:44;;;;;;;0.60;0.60;;;4.00;99.90;;;;;;5072477;28;20288;-52
2023/01/16 13:04:16;;;;;;;1.80;0.40;;;4.00;99.90;;;;;;5072845;28;20231;-50
2023/01/16 13:06:47;;;;;;;0.87;0.60;;;4.20;99.90;;;;;;5073079;28;20691;-53
2023/01/16 13:09:23;;;;;;;1.83;0.83;;;4.30;99.90;;;;;;5072918;28;20635;-51
2023/01/16 13:14:51;;;;;;;1.43;1.13;;;4.30;99.90;;;;;;5074111;28;20713;-52
2023/01/16 13:17:23;;;;;;;2.53;1.93;;;4.20;99.90;;;;;;5072709;28;20212;-50
2023/01/16 13:19:53;;;;;;;2.50;1.40;;;4.20;99.90;;;;;;5072646;28;20229;-50
2023/01/16 13:22:25;;;;;;;0.73;0.73;;;4.20;99.90;;;;;;5076229;28;20337;-50
2023/01/16 13:24:57;;;;;;;0.60;0.60;;;4.30;99.90;;;;;;5072725;28;20206;-52
2023/01/16 13:27:34;;;;;;;1.63;0.50;;;4.40;99.90;;;;;;5072713;28;20299;-50
2023/01/16 13:30:05;;;;;;;2.10;0.90;;;4.40;99.90;;;;;;5072427;28;20291;-49
2023/01/16 13:32:37;;;;;;;0.80;0.80;;;4.50;99.90;;;;;;5079110;28;20222;-51
2023/01/16 13:35:12;;;;;;;0.77;0.73;;;4.50;99.90;;;;;;5072040;28;20656;-49
2023/01/16 13:37:53;;;;;;;0.80;0.80;;;4.50;99.90;;;;;;5072520;28;20206;-50
2023/01/16 13:40:43;;;;;;;1.50;0.63;;;4.70;99.90;;;;;;5070023;28;20698;-51
2023/01/16 13:46:18;;;;;;;3.50;1.00;;;4.70;99.90;;;;;;5004911;28;20748;-51
2023/01/16 13:48:52;;;;;;;1.83;0.90;;;4.70;99.90;;;;;;5010019;28;20294;-52
2023/01/16 13:51:23;;;;;;;3.03;1.20;;;4.90;99.90;;;;;;5037175;28;20202;-51
2023/01/16 13:53:52;;;;;;;1.23;0.73;;;5.10;99.90;;;;;;5078911;28;20781;-53
2023/01/16 13:56:24;;;;;;;1.60;0.77;;;5.20;99.90;;;;;;5095438;22;20233;-49
2023/01/16 13:58:56;;;;;;;0.43;0.30;;;5.30;99.90;;;;;;5072805;28;20198;-49
2023/01/16 14:01:33;;;;;;;1.27;0.90;;;5.20;99.90;;;;;;5072656;28;20256;-50
2023/01/16 14:04:29;;;;;;;3.97;1.63;;;5.20;99.90;;;;;;5071598;28;20197;-48
2023/01/16 14:10:16;;;;;;;0.63;0.30;;;5.10;99.90;;;;;;5068402;28;20276;-48
2023/01/16 14:13:00;;;;;;;2.47;0.40;;;5.10;99.90;;;;;;5071662;28;20314;-49
2023/01/16 14:18:41;;;;;;;0.40;0.40;;;5.10;99.90;;;;;;5072215;28;20710;-49
2023/01/16 14:21:20;;;;;;;0.73;0.33;;;5.20;99.90;;;;;;5072398;28;20209;-49
2023/01/16 14:24:03;;;;;;;0.40;0.40;;;5.30;99.90;;;;;;5069974;28;20217;-49
2023/01/16 14:26:53;;;;;;;0.30;0.30;;;5.40;99.90;;;;;;5071888;28;20213;-48
2023/01/16 14:29:24;;;;;;;0.40;0.20;;;5.40;99.90;;;;;;5065762;28;20203;-49
2023/01/16 14:31:57;;;;;;;3.53;0.40;;;5.50;99.90;;;;;;5070473;28;20223;-50